Latest Weather Observations for Broken Hill Airport

IDN60801

Issued at 2:02 am EST Wednesday 26 April 2017 (issued every 30 minutes, with the page automatically refreshed every 10 minutes)

About weather observations | Map of weather stations | Latest weather observations for NSW | Other Formats
Station Details ID: 047048 Name: BROKEN HILL AIRPORT AWS Lat: -32.00 Lon: 141.47 Height: 281.3 m
Data from the previous 72 hours. | See also: Recent months at Broken Hill Airport
Date/Time
EST
Temp
°C
App
Temp
°C
Dew
Point
°C
Rel
Hum
%
Delta-T
°C
Wind Press
QNH
hPa
Press
MSL
hPa
Rain since
9am
mm
Dir  Spd
km/h
Gust
km/h
Spd
kts
Gust
kts
26/02:00am 13.3 9.5 9.7 79 1.9 WSW 20 28 11 15 1014.2 1013.5 0.2
26/01:30am 13.9 8.7 10.3 79 1.9 WSW 28 35 15 19 1014.2 1013.5 0.2
26/01:07am 14.5 9.2 9.7 73 2.5 WSW 28 46 15 25 1014.3 1013.6 0.2
26/01:00am 14.2 10.6 9.8 75 2.3 W 19 24 10 13 1014.2 1013.5 0.2
26/12:30am 13.7 9.8 9.6 76 2.1 W 20 24 11 13 1013.9 1013.2 0.2
26/12:00am 13.4 10.5 9.6 78 2.0 W 15 19 8 10 1013.8 1013.1 0.2
 
Date/Time
EST
Temp
°C
App
Temp
°C
Dew
Point
°C
Rel
Hum
%
Delta-T
°C
Wind Press
QNH
hPa
Press
MSL
hPa
Rain since
9am
mm
Dir  Spd
km/h
Gust
km/h
Spd
kts
Gust
kts
25/11:30pm 13.6 10.7 9.6 77 2.1 WNW 15 17 8 9 1013.7 1013.0 0.2
25/11:00pm 14.7 11.1 9.7 72 2.6 W 19 24 10 13 1013.9 1013.2 0.2
25/10:30pm 14.3 12.2 9.9 75 2.3 W 11 15 6 8 1013.7 1013.0 0.2
25/10:00pm 14.8 12.4 10.2 74 2.4 WNW 13 15 7 8 1013.8 1013.1 0.2
25/09:30pm 15.6 12.5 10.2 70 2.9 W 17 20 9 11 1013.8 1013.1 0.2
25/09:00pm 15.8 12.4 10.6 71 2.8 W 19 28 10 15 1013.8 1013.1 0.2
25/08:30pm 15.5 13.8 11.1 75 2.4 WNW 11 13 6 7 1013.7 1013.0 0.2
25/08:00pm 15.5 13.8 11.1 75 2.4 WNW 11 13 6 7 1013.7 1013.0 0.2
25/07:30pm 15.7 13.9 10.9 73 2.6 WNW 11 11 6 6 1013.5 1012.8 0.2
25/07:00pm 15.9 13.7 10.9 72 2.7 W 13 13 7 7 1013.4 1012.7 0.2
25/06:30pm 16.6 14.8 10.7 68 3.2 W 11 13 6 7 1013.3 1012.6 0.2
25/06:00pm 18.1 15.6 9.7 58 4.5 WSW 13 17 7 9 1013.1 1012.4 0.2
25/05:30pm 19.3 15.5 9.2 52 5.4 WSW 19 24 10 13 1012.9 1012.2 0.2
25/05:00pm 19.7 15.0 9.3 51 5.6 SW 24 32 13 17 1013.0 1012.3 0.2
25/04:30pm 20.0 15.2 8.7 48 6.0 SW 24 35 13 19 1012.8 1012.1 0.2
25/04:00pm 20.8 16.4 9.1 47 6.3 SW 22 32 12 17 1012.7 1012.0 0.2
25/03:30pm 20.2 15.5 9.2 49 5.9 SW 24 30 13 16 1012.7 1012.0 0.2
25/03:00pm 20.6 16.0 9.8 50 5.9 SW 24 33 13 18 1012.6 1011.9 0.2
25/02:30pm 20.9 15.9 7.9 43 6.8 W 24 33 13 18 1012.6 1011.9 0.2
25/02:00pm 21.0 16.3 9.3 47 6.3 WSW 24 37 13 20 1012.9 1012.2 0.2
25/01:30pm 20.5 16.2 10.6 53 5.5 WSW 24 33 13 18 1013.2 1012.5 0.2
25/01:00pm 20.2 16.1 10.0 52 5.6 SW 22 32 12 17 1013.4 1012.7 0.2
25/12:30pm 20.0 15.6 10.4 54 5.3 SW 24 32 13 17 1013.8 1013.1 0.2
25/12:00pm 19.4 15.3 11.4 60 4.4 SW 24 33 13 18 1014.3 1013.6 0.2
25/11:30am 19.0 15.9 12.3 65 3.8 WSW 20 32 11 17 1014.5 1013.8 0.2
25/11:00am 18.7 15.9 13.1 70 3.2 WSW 20 32 11 17 1014.9 1014.3 0.2
25/10:30am 18.0 14.8 13.1 73 2.8 SW 22 28 12 15 1015.0 1014.4 0.2
25/10:00am 18.3 15.4 14.0 76 2.5 WSW 22 26 12 14 1014.9 1014.3 0.0
25/09:30am 17.9 15.0 14.0 78 2.3 WSW 22 28 12 15 1014.9 1014.3 7.2
25/09:00am 17.4 15.0 14.5 83 1.7 WSW 20 26 11 14 1014.9 1014.3 7.2
25/08:30am 17.3 16.0 14.8 85 1.5 W 15 20 8 11 1014.5 1013.8 7.2
25/08:00am 16.6 15.8 15.1 91 0.9 W 13 17 7 9 1014.3 1013.6 7.2
25/07:30am 16.5 15.0 15.2 92 0.8 W 17 24 9 13 1014.1 1013.4 7.2
25/07:00am 16.5 14.7 15.4 93 0.6 W 19 24 10 13 1013.9 1013.2 7.2
25/06:30am 16.6 15.5 15.3 92 0.8 WNW 15 20 8 11 1013.8 1013.1 7.0
25/06:00am 16.5 15.0 15.2 92 0.8 WNW 17 22 9 12 1013.6 1012.9 7.0
25/05:30am 16.3 15.1 15.0 92 0.8 WNW 15 20 8 11 1013.6 1012.9 7.0
25/05:00am 16.4 14.8 15.1 92 0.8 WNW 17 20 9 11 1013.3 1012.6 7.0
25/04:30am 16.3 14.6 14.8 91 0.9 WNW 17 24 9 13 1013.2 1012.5 7.0
25/04:00am 16.4 14.5 15.1 92 0.8 NW 19 24 10 13 1013.3 1012.6 7.0
25/03:30am 16.4 15.2 15.1 92 0.8 NW 15 20 8 11 1013.4 1012.7 7.0
25/03:00am 16.5 14.6 15.2 92 0.8 WNW 19 24 10 13 1013.5 1012.8 7.0
25/02:30am 16.5 15.0 15.2 92 0.8 NW 17 24 9 13 1013.5 1012.8 7.0
25/02:00am 16.6 15.9 15.5 93 0.7 NW 13 17 7 9 1013.8 1013.1 7.0
25/01:30am 16.6 15.2 15.5 93 0.7 WNW 17 20 9 11 1014.3 1013.6 6.6
25/01:00am 16.4 15.3 15.3 93 0.6 WNW 15 19 8 10 1014.4 1013.7 6.2
25/12:55am 16.4 15.3 15.3 93 0.6 WNW 15 22 8 12 1014.4 1013.7 6.2
25/12:30am 16.5 15.0 15.2 92 0.8 WNW 17 22 9 12 1014.6 1013.9 4.4
25/12:29am 16.5 15.0 15.2 92 0.8 WNW 17 24 9 13 1014.6 1013.9 4.4
25/12:00am 16.6 15.9 15.5 93 0.6 NW 13 17 7 9 1014.4 1013.7 4.0
 
Date/Time
EST
Temp
°C
App
Temp
°C
Dew
Point
°C
Rel
Hum
%
Delta-T
°C
Wind Press
QNH
hPa
Press
MSL
hPa
Rain since
9am
mm
Dir  Spd
km/h
Gust
km/h
Spd
kts
Gust
kts
24/11:46pm 16.5 15.4 15.4 93 0.6 WNW 15 19 8 10 1014.7 1014.1 4.0
24/11:30pm 16.5 15.0 15.4 93 0.6 WNW 17 24 9 13 1015.0 1014.4 4.0
24/11:15pm 16.5 14.5 15.4 93 0.6 WNW 20 28 11 15 1015.3 1014.7 3.4
24/11:13pm 16.5 14.5 15.4 93 0.6 WNW 20 28 11 15 1015.5 1014.8 3.2
24/11:00pm 16.5 14.0 15.2 92 0.8 WNW 22 28 12 15 1015.6 1014.9 2.6
24/10:46pm 16.8 14.5 15.7 93 0.7 W 22 26 12 14 1015.5 1014.8 1.8
24/10:30pm 16.7 14.3 15.4 92 0.8 W 22 28 12 15 1015.6 1014.9 1.6
24/10:00pm 17.1 14.7 15.4 90 1.0 W 22 32 12 17 1016.0 1015.3 0.0
24/09:30pm 17.9 15.8 15.3 85 1.5 WNW 20 24 11 13 1015.8 1015.1 0.0
24/09:00pm 18.7 16.9 16.1 85 1.6 WNW 20 24 11 13 1015.2 1014.6 0.0
24/08:30pm 20.0 18.6 16.6 81 2.1 WNW 19 26 10 14 1015.3 1014.7 0.0
24/08:00pm 21.3 20.6 16.3 73 3.1 WNW 15 20 8 11 1015.6 1014.9 0.0
24/07:30pm 21.6 21.2 16.3 72 3.2 WNW 13 19 7 10 1015.5 1014.8 0.0
24/07:00pm 22.2 21.5 15.5 66 4.1 WNW 13 20 7 11 1015.2 1014.6 0.0
24/06:30pm 22.5 22.0 14.9 62 4.6 NW 11 20 6 11 1014.9 1014.3 0.0
24/06:00pm 22.9 21.9 14.7 60 4.9 NW 13 17 7 9 1014.9 1014.3 0.0
24/05:30pm 23.2 21.8 14.5 58 5.2 WNW 15 20 8 11 1014.8 1014.2 0.0
24/05:00pm 23.6 21.6 14.0 55 5.7 NW 17 24 9 13 1014.9 1014.3 0.0
24/04:30pm 23.8 21.4 13.9 54 5.9 NW 19 26 10 14 1014.9 1014.3 0.0
24/04:00pm 24.3 21.9 13.8 52 6.2 NW 19 24 10 13 1014.9 1014.3 0.0
24/03:30pm 24.4 21.6 13.3 50 6.5 NW 20 26 11 14 1015.0 1014.4 0.0
24/03:00pm 24.7 22.1 13.3 49 6.7 WNW 19 28 10 15 1015.2 1014.6 0.0
24/02:30pm 24.9 22.3 13.1 48 6.9 NNW 19 26 10 14 1015.5 1014.8 0.0
24/02:00pm 24.6 22.5 13.5 50 6.6 NNW 17 24 9 13 1015.9 1015.2 0.0
24/01:30pm 25.1 22.7 13.9 49 6.7 NNW 19 28 10 15 1016.2 1015.5 0.0
24/01:00pm 24.6 22.2 14.4 53 6.1 NNW 20 26 11 14 1016.7 1016.0 0.0
24/12:30pm 24.7 22.2 14.2 52 6.3 NNW 20 28 11 15 1017.2 1016.5 0.0
24/12:00pm 25.0 23.5 15.3 55 5.9 NNW 17 24 9 13 1017.7 1017.0 0.0
24/11:30am 23.6 22.4 15.1 59 5.1 N 15 20 8 11 1018.2 1017.6 0.0
24/11:00am 23.1 21.0 14.7 59 5.0 NNW 19 26 10 14 1018.5 1017.9 0.0
24/10:30am 22.7 21.0 14.8 61 4.7 N 17 22 9 12 1018.5 1017.9 0.0
24/10:00am 21.9 20.9 15.7 68 3.8 NNE 15 20 8 11 1018.7 1018.1 0.0
24/09:30am 19.9 18.3 15.1 74 2.9 NNE 17 22 9 12 1018.8 1018.2 0.0
24/09:00am 18.7 17.3 15.6 82 1.8 NNE 17 20 9 11 1019.0 1018.4 0.0
24/08:30am 18.2 17.3 15.8 86 1.4 NE 15 19 8 10 1018.9 1018.3 0.0
24/08:00am 17.8 17.4 16.1 90 1.0 NE 13 15 7 8 1018.9 1018.3 0.0
24/07:30am 16.8 16.6 15.7 93 0.7 NE 11 13 6 7 1018.9 1018.3 0.0
24/07:00am 16.4 16.0 15.3 93 0.6 NNE 11 11 6 6 1018.9 1018.3 0.0
24/06:30am 16.4 16.0 15.3 93 0.6 NE 11 11 6 6 1018.8 1018.2 0.0
24/06:00am 16.6 16.7 15.5 93 0.6 NNE 9 11 5 6 1018.8 1018.2 0.0
24/05:30am 16.6 17.1 15.5 93 0.7 NNE 7 9 4 5 1018.7 1018.1 0.0
24/05:00am 16.0 17.3 14.2 89 1.0 CALM 0 6 0 3 1018.7 1018.1 0.0
24/04:30am 16.8 16.8 15.2 90 0.9 NNE 9 9 5 5 1018.8 1018.2 0.0
24/04:00am 17.3 17.1 15.6 90 1.0 NNE 11 13 6 7 1018.7 1018.1 0.0
24/03:30am 17.6 17.1 15.8 89 1.1 NNE 13 15 7 8 1018.6 1018.0 0.0
24/03:00am 17.8 17.6 15.8 88 1.2 NNE 11 15 6 8 1019.3 1018.6 0.0
24/02:30am 17.7 17.5 15.7 88 1.2 NNE 11 15 6 8 1019.3 1018.6 0.0
24/02:00am 17.7 17.0 15.5 87 1.3 NNE 13 15 7 8 1019.3 1018.6 0.0
24/01:30am 17.8 17.6 15.8 88 1.2 NNE 11 13 6 7 1019.6 1018.9 0.0
24/01:00am 17.7 18.3 15.7 88 1.2 NNE 7 11 4 6 1019.8 1019.1 0.0
24/12:30am 17.5 19.4 15.8 90 1.0 CALM 0 6 0 3 1020.0 1019.3 0.0
24/12:00am 17.8 18.4 15.8 88 1.2 NNE 7 9 4 5 1020.2 1019.5 0.0
 
Date/Time
EST
Temp
°C
App
Temp
°C
Dew
Point
°C
Rel
Hum
%
Delta-T
°C
Wind Press
QNH
hPa
Press
MSL
hPa
Rain since
9am
mm
Dir  Spd
km/h
Gust
km/h
Spd
kts
Gust
kts
23/11:30pm 17.8 19.7 15.8 88 1.2 CALM 0 0 0 0 1020.3 1019.6 0.0
23/11:00pm 17.8 19.6 15.6 87 1.3 CALM 0 0 0 0 1020.5 1019.8 0.0
23/10:30pm 18.0 18.9 16.0 88 1.2 NE 6 7 3 4 1020.9 1020.3 0.0
23/10:00pm 17.7 18.0 15.9 89 1.1 ENE 9 11 5 6 1020.9 1020.3 0.0
23/09:30pm 17.7 17.6 15.9 89 1.1 ENE 11 11 6 6 1021.1 1020.5 0.0
23/09:00pm 18.2 18.9 15.6 85 1.5 NNE 6 9 3 5 1021.3 1020.7 0.0
23/08:30pm 18.7 18.6 16.1 85 1.6 NE 11 15 6 8 1021.3 1020.7 0.0
23/08:00pm 19.0 20.2 16.0 83 1.8 NNE 4 7 2 4 1021.2 1020.6 0.0
23/07:30pm 19.4 19.8 16.4 83 1.8 ENE 9 11 5 6 1020.9 1020.3 0.0
23/07:00pm 20.0 20.8 16.4 80 2.2 NE 7 9 4 5 1020.7 1020.0 0.0
23/06:30pm 20.2 21.1 16.2 78 2.4 NW 6 7 3 4 1020.5 1019.8 0.0
23/06:00pm 20.3 21.1 15.9 76 2.7 NNW 6 6 3 3 1020.1 1019.4 0.0
23/05:30pm 20.4 21.3 16.0 76 2.7 N 6 7 3 4 1020.0 1019.3 0.0
23/05:00pm 20.4 20.2 15.8 75 2.8 NW 11 15 6 8 1020.0 1019.3 0.0
23/04:30pm 20.9 21.2 16.1 74 2.9 N 9 13 5 7 1019.9 1019.2 0.0
23/04:00pm 21.1 21.0 15.0 68 3.6 N 9 13 5 7 1019.8 1019.1 0.0
23/03:30pm 21.4 21.0 15.3 68 3.7 N 11 15 6 8 1019.8 1019.1 0.0
23/03:00pm 22.2 20.8 14.6 62 4.5 NE 15 20 8 11 1019.7 1019.0 0.0
23/02:30pm 21.8 20.5 14.9 65 4.1 NNE 15 19 8 10 1020.0 1019.3 0.0
23/02:00pm 21.0 20.3 15.3 70 3.4 NNE 13 17 7 9 1020.0 1019.3 0.0
23/01:30pm 21.9 21.8 14.0 61 4.7 SSW 7 13 4 7 1020.4 1019.7 0.0
23/01:00pm 22.3 22.5 14.2 60 4.8 SSE 6 11 3 6 1020.9 1020.3 0.0
23/12:30pm 21.4 20.6 15.0 67 3.8 S 13 17 7 9 1021.3 1020.7 0.0
23/12:00pm 21.6 21.5 15.0 66 3.9 S 9 13 5 7 1021.7 1021.1 0.0
23/11:30am 22.1 22.5 15.2 65 4.2 SW 7 13 4 7 1022.0 1021.4 0.0
23/11:00am 21.0 21.5 15.1 69 3.5 S 6 11 3 6 1022.3 1021.7 0.0
23/10:30am 20.7 20.7 15.3 71 3.2 SW 9 13 5 7 1022.4 1021.8 0.0
23/10:00am 20.1 19.9 15.7 76 2.6 SW 11 17 6 9 1022.5 1021.9 0.0
23/09:30am 19.2 19.1 15.9 81 2.0 WSW 11 15 6 8 1022.4 1021.8 0.0
23/09:00am 18.6 18.9 16.0 85 1.6 WSW 9 11 5 6 1022.4 1021.8 0.0
23/08:30am 17.9 18.2 15.9 88 1.2 W 9 13 5 7 1022.2 1021.6 0.0
23/08:00am 17.7 18.0 16.0 90 1.0 W 9 11 5 6 1021.9 1021.3 0.0
23/07:30am 17.4 18.0 15.9 91 0.9 W 7 9 4 5 1021.6 1021.0 0.0
23/07:00am 17.2 17.8 15.9 92 0.8 W 7 9 4 5 1021.5 1020.9 0.0
23/06:30am 17.1 17.3 15.8 92 0.8 W 9 11 5 6 1021.4 1020.8 0.0
23/06:00am 17.0 17.6 15.9 93 0.7 W 7 9 4 5 1021.2 1020.6 0.0
23/05:30am 17.0 17.3 15.9 93 0.7 W 9 9 5 5 1021.0 1020.4 0.0
23/05:00am 17.1 17.7 15.8 92 0.8 W 7 9 4 5 1021.0 1020.4 0.0
23/04:30am 17.2 17.8 15.7 91 0.9 W 7 9 4 5 1020.9 1020.3 0.0
23/04:00am 17.3 17.8 15.6 90 1.0 W 7 11 4 6 1020.9 1020.3 0.0
23/03:30am 17.6 17.9 15.9 90 1.0 W 9 11 5 6 1021.0 1020.4 0.0
23/03:00am 17.6 18.2 15.8 89 1.1 W 7 9 4 5 1021.1 1020.5 0.0

Other Formats:

Comma delimited format used in spreadsheet applications
http://www.bom.gov.au/fwo/IDN60801/IDN60801.94691.axf

JavaScript Object Notation format (JSON) in row-major order
http://www.bom.gov.au/fwo/IDN60801/IDN60801.94691.json